createdAt,value
2023-01-09T15:27:14.314Z,8.58
2023-01-09T15:29:41.360Z,9.72
2023-01-09T15:32:12.605Z,9.91
2023-01-09T15:34:39.757Z,10.01
2023-01-09T15:37:34.937Z,10.09
2023-01-09T15:40:04.506Z,10.18
2023-01-09T15:43:00.713Z,10.25
2023-01-09T15:45:29.026Z,10.34
2023-01-09T15:47:56.835Z,10.40
2023-01-09T15:50:28.218Z,10.45
2023-01-09T15:52:55.542Z,10.52
2023-01-09T15:55:26.330Z,10.57
2023-01-09T15:57:54.342Z,10.59
2023-01-09T16:00:41.112Z,10.61
2023-01-09T16:03:16.633Z,10.66
2023-01-09T16:05:44.668Z,10.70
2023-01-09T16:08:39.889Z,10.72
2023-01-09T16:11:10.862Z,10.74
2023-01-09T16:13:42.980Z,10.74
2023-01-09T16:16:09.881Z,10.74
2023-01-09T16:18:38.814Z,10.74
2023-01-09T16:21:12.004Z,10.75
2023-01-09T16:23:41.920Z,10.76
2023-01-09T16:26:13.390Z,10.77
2023-01-09T16:28:41.951Z,10.78
2023-01-09T16:31:25.984Z,10.79
2023-01-09T16:33:56.014Z,10.81
2023-01-09T16:36:25.315Z,10.80
2023-01-09T16:38:53.898Z,10.79
2023-01-09T16:41:40.458Z,10.80
2023-01-09T16:44:09.165Z,10.80
2023-01-09T16:46:41.169Z,10.80
2023-01-09T16:49:28.163Z,10.78
2023-01-09T16:51:56.541Z,10.78
2023-01-09T16:54:23.807Z,10.77
2023-01-09T16:56:52.277Z,10.77
2023-01-09T16:59:25.073Z,10.78
2023-01-09T17:01:53.046Z,10.78
2023-01-09T17:04:23.199Z,10.76
2023-01-09T17:06:50.248Z,10.75
2023-01-09T17:09:18.596Z,10.72
2023-01-09T17:11:45.720Z,10.72
2023-01-09T17:14:13.182Z,10.72
2023-01-09T17:16:46.242Z,10.72
2023-01-09T17:19:18.539Z,10.72
2023-01-09T17:21:45.681Z,10.72
2023-01-09T17:24:31.260Z,10.72
2023-01-09T17:27:17.150Z,10.73
2023-01-09T17:29:44.407Z,10.72
2023-01-09T17:32:16.356Z,10.71
2023-01-09T17:34:43.739Z,10.71
2023-01-09T17:37:17.980Z,10.72
2023-01-09T17:39:45.727Z,10.73
2023-01-09T17:42:13.150Z,10.73
2023-01-09T17:44:40.200Z,10.74
2023-01-09T17:47:14.817Z,10.75
2023-01-09T17:49:41.906Z,10.75
2023-01-09T17:52:09.017Z,10.76
2023-01-09T17:54:36.168Z,10.75
2023-01-09T17:57:03.047Z,10.75
2023-01-09T17:59:30.471Z,10.76
2023-01-09T18:01:57.700Z,10.77
2023-01-09T18:04:25.070Z,10.77
2023-01-09T18:06:54.078Z,10.79
2023-01-09T18:09:21.425Z,10.80
2023-01-09T18:11:48.462Z,10.81
2023-01-09T18:14:17.144Z,10.81
2023-01-09T18:16:44.844Z,10.81
2023-01-09T18:19:12.475Z,10.83
2023-01-09T18:21:39.957Z,10.82
2023-01-09T18:24:08.305Z,10.81
2023-01-09T18:26:36.583Z,10.82
2023-01-09T18:29:03.746Z,10.81
2023-01-09T18:31:30.863Z,10.80
2023-01-09T18:34:01.825Z,10.79
2023-01-09T18:36:29.492Z,10.77
2023-01-09T18:39:01.047Z,10.76
2023-01-09T18:41:28.499Z,10.76
2023-01-09T18:43:57.139Z,10.76
2023-01-09T18:46:24.939Z,10.76
2023-01-09T18:48:59.885Z,10.77
2023-01-09T18:51:27.649Z,10.79
2023-01-09T18:53:55.059Z,10.80
2023-01-09T18:56:23.000Z,10.81
2023-01-09T18:58:53.793Z,10.80
2023-01-09T19:01:20.784Z,10.80
2023-01-09T19:03:51.013Z,10.80
2023-01-09T19:06:18.410Z,10.78
2023-01-09T19:08:46.000Z,10.77
2023-01-09T19:11:13.124Z,10.76
2023-01-09T19:13:40.214Z,10.75
2023-01-09T19:16:07.909Z,10.75
2023-01-09T19:18:39.294Z,10.75
2023-01-09T19:21:11.103Z,10.74
2023-01-09T19:23:38.406Z,10.72
2023-01-09T19:26:10.128Z,10.72
2023-01-09T19:28:38.525Z,10.74
2023-01-09T19:31:05.795Z,10.74
2023-01-09T19:33:33.131Z,10.75
2023-01-09T19:36:00.334Z,10.74
2023-01-09T19:38:27.453Z,10.75
2023-01-09T19:40:54.477Z,10.74
2023-01-09T19:43:27.356Z,10.72
2023-01-09T19:45:55.193Z,10.70
2023-01-09T19:48:23.194Z,10.69
2023-01-09T19:50:50.346Z,10.69
2023-01-09T19:53:18.005Z,10.69
2023-01-09T19:55:46.177Z,10.68
2023-01-09T19:58:13.544Z,10.66
2023-01-09T20:00:40.584Z,10.64
2023-01-09T20:03:07.645Z,10.62
2023-01-09T20:05:35.286Z,10.59
2023-01-09T20:08:05.819Z,10.57
2023-01-09T20:10:33.273Z,10.54
2023-01-09T20:13:00.525Z,10.51
2023-01-09T20:15:27.595Z,10.47
2023-01-09T20:17:55.549Z,10.44
2023-01-09T20:20:22.691Z,10.41
2023-01-09T20:22:49.836Z,10.39
2023-01-09T20:25:16.786Z,10.35
2023-01-09T20:27:44.035Z,10.31
2023-01-09T20:30:11.793Z,10.27
2023-01-09T20:32:39.174Z,10.25
2023-01-09T20:35:07.341Z,10.22
2023-01-09T20:37:34.889Z,10.21
2023-01-09T20:40:02.446Z,10.19
2023-01-09T20:42:30.558Z,10.18
2023-01-09T20:44:57.766Z,10.16
2023-01-09T20:47:25.530Z,10.15
2023-01-09T20:49:52.679Z,10.14
2023-01-09T20:52:22.181Z,10.13
2023-01-09T20:54:49.349Z,10.13
2023-01-09T20:57:19.659Z,10.11
2023-01-09T20:59:47.156Z,10.10
2023-01-09T21:02:14.467Z,10.08
2023-01-09T21:04:41.511Z,10.09
2023-01-09T21:07:10.409Z,10.08
2023-01-09T21:09:37.448Z,10.07
2023-01-09T21:12:24.262Z,10.05
2023-01-09T21:14:51.308Z,10.04
2023-01-09T21:17:18.465Z,10.04
2023-01-09T21:19:45.912Z,10.04
2023-01-09T21:22:13.059Z,10.04
2023-01-09T21:24:40.312Z,10.05
2023-01-09T21:27:07.256Z,10.05
2023-01-09T21:29:34.404Z,10.05
2023-01-09T21:32:02.136Z,10.05
2023-01-09T21:34:29.522Z,10.06
2023-01-09T21:36:56.494Z,10.07
2023-01-09T21:39:23.926Z,10.07
2023-01-09T21:42:10.153Z,10.09
2023-01-09T21:44:56.326Z,10.10
2023-01-09T21:47:23.571Z,10.12
2023-01-09T21:49:50.820Z,10.11
2023-01-09T21:52:20.636Z,10.11
2023-01-09T21:54:47.912Z,10.11
2023-01-09T21:57:15.339Z,10.10
2023-01-09T21:59:43.108Z,10.12
2023-01-09T22:02:13.839Z,10.13
2023-01-09T22:04:42.524Z,10.14
2023-01-09T22:07:09.975Z,10.15
2023-01-09T22:09:37.229Z,10.16
2023-01-09T22:12:04.381Z,10.17
2023-01-09T22:14:31.735Z,10.17
2023-01-09T22:16:58.780Z,10.17
2023-01-09T22:19:28.061Z,10.16
2023-01-09T22:21:55.240Z,10.16
2023-01-09T22:24:25.459Z,10.17
2023-01-09T22:26:52.519Z,10.17
2023-01-09T22:29:21.386Z,10.16
2023-01-09T22:31:48.897Z,10.15
2023-01-09T22:34:17.732Z,10.12
2023-01-09T22:36:45.467Z,10.11
2023-01-09T22:39:13.780Z,10.09
2023-01-09T22:41:41.036Z,10.07
2023-01-09T22:44:11.557Z,10.06
2023-01-09T22:46:38.599Z,10.05
2023-01-09T22:49:07.092Z,10.05
2023-01-09T22:51:34.535Z,10.05
2023-01-09T22:54:01.395Z,10.05
2023-01-09T22:56:31.835Z,10.04
2023-01-09T22:59:00.386Z,10.04
2023-01-09T23:01:27.638Z,10.04
2023-01-09T23:03:54.790Z,10.04
2023-01-09T23:06:22.554Z,10.05
2023-01-09T23:08:50.226Z,10.04
2023-01-09T23:11:44.703Z,10.02
2023-01-09T23:14:12.060Z,10.03
2023-01-09T23:16:39.786Z,10.05
2023-01-09T23:19:13.935Z,10.07
2023-01-09T23:21:41.636Z,10.10
2023-01-09T23:24:08.755Z,10.13
2023-01-09T23:26:38.251Z,10.16
2023-01-09T23:29:07.245Z,10.19
2023-01-09T23:31:35.344Z,10.20
2023-01-09T23:34:02.978Z,10.22
2023-01-09T23:36:30.472Z,10.24
2023-01-09T23:38:59.112Z,10.25
2023-01-09T23:41:44.693Z,10.26
2023-01-09T23:44:12.059Z,10.28
2023-01-09T23:46:39.300Z,10.30
2023-01-09T23:49:06.345Z,10.31
2023-01-09T23:51:34.013Z,10.31
2023-01-09T23:54:01.566Z,10.33
2023-01-09T23:56:30.765Z,10.33
2023-01-09T23:59:00.987Z,10.34
